Time;durP1;ratioP1;P1;durP2;ratioP2;P2;SDS_P1;SDS_P2;PMS_P1;PMS_P2;Temp;Humidity;BMP_temperature;BMP_pressure;BME280_temperature;BME280_humidity;BME280_pressure;Samples;Min_cycle;Max_cycle;Signal;HPM_P1;HPM_P2
2022/12/30 00:02:17;;;;;;;77.43;43.77;;;;;;;2.16;98.30;100783.06;1442494;90;22186;-86
2022/12/30 00:04:49;;;;;;;84.97;46.77;;;;;;;2.14;99.11;100778.38;1445032;90;21959;-86
2022/12/30 00:07:15;;;;;;;86.20;46.80;;;;;;;2.16;98.85;100771.31;1449830;90;22983;-88
2022/12/30 00:09:41;;;;;;;79.87;42.60;;;;;;;2.16;98.85;100771.31;1458322;90;22069;-85
2022/12/30 00:35:00;;;;;;;77.13;41.60;;;;;;;2.32;98.64;100778.28;1457197;90;22953;-86
2022/12/30 00:37:26;;;;;;;74.40;43.17;;;;;;;2.36;98.51;100771.94;1452072;90;22083;-85
2022/12/30 00:39:52;;;;;;;80.37;45.77;;;;;;;2.43;98.73;100770.20;1449024;90;22939;-85
2022/12/30 00:45:05;;;;;;;82.30;43.63;;;;;;;2.46;98.63;100774.42;1446666;90;22184;-86
2022/12/30 00:47:31;;;;;;;78.00;43.87;;;;;;;2.43;98.71;100774.59;1453564;88;23130;-87
2022/12/30 00:58:11;;;;;;;64.77;38.20;;;;;;;2.46;99.04;100788.79;1452616;90;23192;-86
2022/12/30 01:00:37;;;;;;;61.60;37.80;;;;;;;2.48;99.39;100785.16;1449634;90;22297;-86
2022/12/30 01:03:03;;;;;;;68.10;37.47;;;;;;;2.51;99.31;100769.78;1451719;90;22081;-85
2022/12/30 01:05:29;;;;;;;76.30;43.57;;;;;;;2.56;99.19;100774.72;1458035;90;22104;-86
2022/12/30 01:07:56;;;;;;;75.77;40.70;;;;;;;2.61;98.82;100764.39;1452926;90;22114;-87
2022/12/30 01:10:22;;;;;;;141.23;73.47;;;;;;;2.61;98.82;100764.39;1450553;90;23244;-86
2022/12/30 01:12:52;;;;;;;118.13;63.40;;;;;;;2.69;98.77;100760.88;1452810;89;22343;-86
2022/12/30 01:15:19;;;;;;;110.43;57.90;;;;;;;2.71;98.73;100763.41;1454667;89;21449;-86
2022/12/30 01:17:45;;;;;;;100.43;53.30;;;;;;;2.70;98.64;100761.70;1456926;90;22991;-85
2022/12/30 01:20:13;;;;;;;103.50;54.13;;;;;;;2.63;98.62;100763.84;1451716;88;22331;-86
2022/12/30 01:22:39;;;;;;;94.63;51.90;;;;;;;2.65;98.63;100769.00;1453230;90;22140;-85
2022/12/30 01:25:06;;;;;;;85.10;43.17;;;;;;;2.62;98.60;100770.48;1452134;90;22064;-85
2022/12/30 01:27:32;;;;;;;67.40;39.40;;;;;;;2.63;98.35;100766.45;1453831;90;23133;-86
2022/12/30 01:29:59;;;;;;;72.53;40.43;;;;;;;2.66;98.36;100754.52;1451550;90;22135;-86
2022/12/30 01:32:29;;;;;;;73.23;40.20;;;;;;;2.69;98.06;100759.56;1451686;90;22003;-85
2022/12/30 01:34:56;;;;;;;58.17;33.63;;;;;;;2.70;98.25;100762.58;1453359;90;23149;-86
2022/12/30 01:37:23;;;;;;;62.13;36.00;;;;;;;2.64;98.38;100768.13;1452849;90;22096;-89
2022/12/30 01:39:50;;;;;;;66.57;36.83;;;;;;;2.55;98.57;100758.69;1453091;90;22113;-88
2022/12/30 01:42:24;;;;;;;68.27;37.13;;;;;;;2.61;98.33;100763.08;1450913;90;22066;-86
2022/12/30 01:45:01;;;;;;;66.53;39.00;;;;;;;2.65;98.54;100757.23;1452838;90;22089;-87
2022/12/30 01:48:05;;;;;;;59.13;32.83;;;;;;;2.68;98.67;100744.83;1453788;89;22144;-87
2022/12/30 01:50:39;;;;;;;65.10;36.30;;;;;;;2.66;98.93;100738.84;1448356;90;23072;-88
2022/12/30 01:57:47;;;;;;;48.30;28.67;;;;;;;2.83;98.70;100744.86;1451371;90;22237;-87
2022/12/30 02:04:21;;;;;;;48.63;25.13;;;;;;;2.96;98.44;100736.64;1446160;90;22161;-87
2022/12/30 02:07:16;;;;;;;39.37;24.63;;;;;;;3.00;98.26;100729.48;1446993;88;22200;-89
2022/12/30 02:09:44;;;;;;;42.17;23.97;;;;;;;2.96;97.68;100714.89;1452907;89;23192;-87
2022/12/30 02:12:11;;;;;;;37.53;22.60;;;;;;;2.96;97.68;100714.89;1453951;90;22158;-88
2022/12/30 02:14:40;;;;;;;41.40;25.13;;;;;;;3.00;97.85;100714.63;1449441;90;23164;-91
2022/12/30 02:17:27;;;;;;;38.67;25.03;;;;;;;3.04;97.97;100712.19;1442336;90;22879;-84
2022/12/30 02:20:14;;;;;;;34.83;21.90;;;;;;;3.08;98.47;100698.37;1442305;90;23008;-84
2022/12/30 02:23:29;;;;;;;37.10;21.77;;;;;;;3.09;98.65;100698.37;1407501;93;22338;-85
2022/12/30 02:26:49;;;;;;;38.13;22.17;;;;;;;3.18;99.83;100711.36;1414193;92;22220;-86
2022/12/30 02:30:01;;;;;;;36.63;22.63;;;;;;;3.22;100.00;100712.01;1398322;92;22326;-85
2022/12/30 02:33:00;;;;;;;39.10;24.05;;;;;;;3.23;100.00;100710.63;1408444;92;22309;-84
2022/12/30 02:39:46;;;;;;;32.53;19.87;;;;;;;3.31;100.00;100731.93;1404902;93;22291;-85
2022/12/30 02:45:23;;;;;;;32.23;21.33;;;;;;;3.47;100.00;100740.97;1408116;93;22121;-87
2022/12/30 02:47:56;;;;;;;37.20;20.43;;;;;;;3.56;100.00;100739.56;1415385;93;22189;-87
2022/12/30 02:53:19;;;;;;;32.97;20.47;;;;;;;3.71;100.00;100728.60;1411688;93;23207;-91
2022/12/30 02:55:45;;;;;;;;;;;;;;;3.80;100.00;100730.67;1412194;93;22129;-90
2022/12/30 02:58:12;;;;;;;32.77;20.93;;;;;;;3.82;100.00;100732.22;1402069;93;20342;-88
2022/12/30 03:04:48;;;;;;;30.43;19.07;;;;;;;3.78;100.00;100714.20;1446413;89;21513;-85
2022/12/30 03:07:34;;;;;;;33.70;20.37;;;;;;;3.73;99.77;100701.39;1453109;89;23138;-85
2022/12/30 03:13:29;;;;;;;26.80;18.20;;;;;;;3.63;99.42;100713.88;1448453;90;22707;-86
2022/12/30 03:16:07;;;;;;;33.13;19.73;;;;;;;3.55;100.00;100715.17;1453861;90;22174;-85
2022/12/30 03:18:35;;;;;;;31.67;21.20;;;;;;;3.46;100.00;100714.92;1454570;89;22066;-86
2022/12/30 03:21:04;;;;;;;32.53;19.70;;;;;;;3.34;100.00;100720.44;1447412;90;22103;-86
2022/12/30 03:29:08;;;;;;;32.60;20.20;;;;;;;3.12;100.00;100728.74;1452927;89;22227;-90
2022/12/30 03:31:34;;;;;;;25.80;18.27;;;;;;;3.10;100.00;100730.12;1440258;89;22162;-90
2022/12/30 03:34:00;;;;;;;31.00;19.50;;;;;;;3.11;100.00;100737.06;1455911;90;22174;-85
2022/12/30 03:41:19;;;;;;;32.55;22.30;;;;;;;3.11;100.00;100733.14;1449109;90;22145;-87
2022/12/30 03:43:45;;;;;;;32.27;20.70;;;;;;;3.16;100.00;100723.25;1454319;90;21456;-88
2022/12/30 03:46:12;;;;;;;41.07;22.47;;;;;;;3.18;100.00;100730.15;1446766;89;22006;-86
2022/12/30 03:48:38;;;;;;;38.30;22.67;;;;;;;3.18;100.00;100730.98;1452383;90;23198;-84
2022/12/30 03:51:04;;;;;;;34.63;21.97;;;;;;;3.21;100.00;100729.95;1452875;89;22135;-88
2022/12/30 03:53:31;;;;;;;43.47;25.33;;;;;;;3.26;100.00;100730.53;1448923;89;22665;-86
2022/12/30 03:55:57;;;;;;;36.73;21.30;;;;;;;3.30;100.00;100726.78;1457010;90;22061;-85
2022/12/30 03:58:23;;;;;;;33.23;21.67;;;;;;;3.31;100.00;100738.91;1453128;89;22076;-85
2022/12/30 04:00:52;;;;;;;36.10;22.33;;;;;;;3.28;100.00;100752.18;1460155;89;22068;-86
2022/12/30 04:03:19;;;;;;;35.07;21.63;;;;;;;3.29;100.00;100744.73;1453327;89;22159;-87
2022/12/30 04:05:45;;;;;;;36.67;23.43;;;;;;;3.29;100.00;100744.73;1449498;90;22053;-86
2022/12/30 04:08:11;;;;;;;36.03;23.40;;;;;;;3.26;100.00;100744.91;1445502;89;23015;-89
2022/12/30 04:10:38;;;;;;;36.93;22.67;;;;;;;3.21;100.00;100736.50;1450479;90;22268;-86
2022/12/30 04:13:04;;;;;;;37.23;23.40;;;;;;;3.15;100.00;100741.63;1444811;90;22017;-89
2022/12/30 04:15:30;;;;;;;39.77;25.30;;;;;;;3.20;100.00;100741.37;1451278;90;23029;-87
2022/12/30 04:17:56;;;;;;;38.50;24.23;;;;;;;3.28;100.00;100731.25;1445057;89;22090;-87
2022/12/30 04:20:22;;;;;;;39.50;24.83;;;;;;;3.28;100.00;100731.25;1452835;90;21294;-87
2022/12/30 04:22:48;;;;;;;31.17;20.97;;;;;;;3.35;100.00;100729.96;1445103;90;22062;-87
2022/12/30 04:25:15;;;;;;;36.53;22.87;;;;;;;3.49;100.00;100726.50;1450959;90;22050;-88
2022/12/30 04:27:41;;;;;;;38.17;23.00;;;;;;;3.49;100.00;100726.50;1447457;90;21413;-87
2022/12/30 04:30:08;;;;;;;37.73;24.00;;;;;;;3.51;100.00;100726.78;1449611;90;22248;-86
2022/12/30 04:32:34;;;;;;;35.63;23.30;;;;;;;3.53;100.00;100727.98;1454926;90;22914;-86
2022/12/30 04:35:00;;;;;;;35.27;23.17;;;;;;;3.53;100.00;100727.98;1457780;90;21384;-88
2022/12/30 04:37:26;;;;;;;34.50;23.90;;;;;;;3.51;100.00;100733.33;1450890;90;22205;-87
2022/12/30 04:39:52;;;;;;;34.67;21.23;;;;;;;3.48;100.00;100737.44;1448516;90;22039;-88
2022/12/30 04:42:18;;;;;;;30.53;21.00;;;;;;;3.47;100.00;100735.73;1457409;90;22926;-90
2022/12/30 04:44:44;;;;;;;33.03;21.57;;;;;;;3.49;100.00;100736.50;1448949;90;22235;-88
2022/12/30 04:47:11;;;;;;;34.23;21.90;;;;;;;3.54;100.00;100739.68;1449729;90;21308;-87
2022/12/30 04:49:37;;;;;;;33.40;21.77;;;;;;;3.57;100.00;100735.56;1451360;90;21518;-89
2022/12/30 04:52:03;;;;;;;36.70;25.27;;;;;;;3.56;100.00;100736.47;1454685;90;22156;-90
2022/12/30 04:54:30;;;;;;;34.17;21.80;;;;;;;3.60;100.00;100739.30;1454662;90;22181;-89
2022/12/30 04:56:56;;;;;;;33.97;22.63;;;;;;;3.61;100.00;100744.89;1451740;90;22039;-89
2022/12/30 04:59:22;;;;;;;37.87;22.20;;;;;;;3.59;100.00;100749.37;1455338;90;23006;-89
2022/12/30 05:01:48;;;;;;;35.00;21.27;;;;;;;3.54;100.00;100754.07;1455849;90;22889;-86
2022/12/30 05:04:15;;;;;;;34.80;21.33;;;;;;;3.51;100.00;100754.27;1450155;90;22046;-87
2022/12/30 05:06:41;;;;;;;34.00;22.73;;;;;;;3.42;100.00;100752.19;1454961;90;22179;-86
2022/12/30 05:09:07;;;;;;;36.90;22.07;;;;;;;3.42;100.00;100753.48;1440933;90;21382;-88
2022/12/30 05:11:33;;;;;;;31.67;21.20;;;;;;;3.42;100.00;100753.48;1448060;90;22419;-86
2022/12/30 05:13:59;;;;;;;32.23;20.93;;;;;;;3.45;100.00;100766.86;1450063;90;22564;-87
2022/12/30 05:16:25;;;;;;;30.27;19.87;;;;;;;3.42;100.00;100756.11;1451619;90;21368;-88
2022/12/30 05:18:52;;;;;;;33.10;22.27;;;;;;;3.55;100.00;100771.45;1454719;89;22388;-85
2022/12/30 05:21:19;;;;;;;36.37;22.47;;;;;;;3.55;100.00;100771.45;1453278;89;21369;-91
2022/12/30 05:26:30;;;;;;;37.70;21.83;;;;;;;3.58;100.00;100777.80;1457393;89;22134;-87
2022/12/30 05:28:56;;;;;;;36.13;24.07;;;;;;;3.51;100.00;100778.25;1455574;89;22978;-89
2022/12/30 05:31:22;;;;;;;37.40;22.60;;;;;;;3.47;100.00;100776.30;1452877;89;22135;-92
2022/12/30 05:33:48;;;;;;;32.50;20.93;;;;;;;3.47;100.00;100773.69;1452329;89;22106;-91
2022/12/30 05:36:15;;;;;;;35.30;21.43;;;;;;;3.48;100.00;100770.16;1447797;89;22336;-92
2022/12/30 05:38:42;;;;;;;35.53;22.47;;;;;;;3.46;100.00;100770.70;1454754;90;22030;-91
2022/12/30 05:41:10;;;;;;;35.90;23.40;;;;;;;3.50;100.00;100770.05;1456885;89;23216;-90
2022/12/30 05:43:36;;;;;;;40.67;25.80;;;;;;;3.56;100.00;100775.73;1448361;89;22018;-92
2022/12/30 05:46:03;;;;;;;44.10;27.17;;;;;;;3.60;100.00;100772.02;1460069;89;22039;-90
2022/12/30 05:48:29;;;;;;;37.57;26.50;;;;;;;3.61;100.00;100759.28;1447869;90;23009;-91
2022/12/30 05:50:55;;;;;;;43.70;27.23;;;;;;;3.61;100.00;100759.28;1457954;89;21390;-91
2022/12/30 05:53:21;;;;;;;43.70;28.07;;;;;;;3.67;100.00;100769.02;1459202;89;22153;-90
2022/12/30 05:55:48;;;;;;;43.53;26.93;;;;;;;3.67;100.00;100769.02;1448770;89;21475;-90
2022/12/30 05:58:14;;;;;;;39.40;26.47;;;;;;;3.63;100.00;100752.66;1446706;89;21369;-88
2022/12/30 06:00:40;;;;;;;45.33;26.77;;;;;;;3.68;100.00;100758.91;1455650;89;22119;-89
2022/12/30 06:03:07;;;;;;;42.03;28.40;;;;;;;3.70;100.00;100759.19;1455453;89;21428;-88
2022/12/30 06:05:33;;;;;;;47.57;29.33;;;;;;;3.75;100.00;100758.91;1452422;89;22189;-87
2022/12/30 06:07:59;;;;;;;49.13;27.03;;;;;;;3.77;100.00;100763.12;1453357;90;22050;-87
2022/12/30 06:10:25;;;;;;;40.07;24.80;;;;;;;3.80;100.00;100776.02;1452660;89;22093;-87
2022/12/30 06:12:51;;;;;;;39.87;25.00;;;;;;;3.86;100.00;100779.19;1454213;89;22976;-87
2022/12/30 06:15:18;;;;;;;40.03;26.50;;;;;;;3.91;100.00;100761.11;1453734;89;22076;-87
2022/12/30 06:17:44;;;;;;;42.57;24.63;;;;;;;3.88;100.00;100761.11;1447983;89;21449;-89
2022/12/30 06:20:11;;;;;;;38.50;25.63;;;;;;;3.89;100.00;100766.27;1452303;89;22151;-89
2022/12/30 06:22:37;;;;;;;38.20;25.93;;;;;;;3.90;100.00;100753.65;1450410;89;21317;-89
2022/12/30 06:25:04;;;;;;;40.00;28.43;;;;;;;3.89;100.00;100753.65;1455232;89;21896;-89
2022/12/30 06:27:30;;;;;;;44.47;28.97;;;;;;;3.90;100.00;100755.80;1458538;88;21309;-91
2022/12/30 06:29:58;;;;;;;39.87;26.70;;;;;;;3.95;100.00;100774.20;1442096;89;21470;-89
2022/12/30 06:32:24;;;;;;;40.37;26.30;;;;;;;3.97;100.00;100779.25;1448553;90;22188;-90
2022/12/30 06:34:50;;;;;;;44.03;24.97;;;;;;;3.98;100.00;100779.25;1451129;90;21427;-89
2022/12/30 06:37:16;;;;;;;35.73;24.50;;;;;;;4.02;100.00;100782.51;1437863;90;21374;-88
2022/12/30 06:39:42;;;;;;;46.37;26.73;;;;;;;4.06;100.00;100769.77;1453431;89;21331;-88
2022/12/30 06:42:09;;;;;;;35.87;22.73;;;;;;;4.10;100.00;100769.77;1452488;89;21460;-87
2022/12/30 06:44:35;;;;;;;37.33;24.70;;;;;;;4.19;100.00;100778.83;1445971;89;21383;-88
2022/12/30 06:47:01;;;;;;;32.97;22.87;;;;;;;4.25;100.00;100777.11;1445991;89;22285;-90
2022/12/30 06:49:27;;;;;;;38.53;24.57;;;;;;;4.30;100.00;100779.81;1456641;89;21428;-88
2022/12/30 06:51:53;;;;;;;36.47;25.50;;;;;;;4.34;100.00;100780.45;1452635;89;21381;-89
2022/12/30 06:54:20;;;;;;;39.43;29.17;;;;;;;4.38;100.00;100784.57;1452337;89;21346;-89
2022/12/30 06:56:46;;;;;;;42.47;27.63;;;;;;;4.40;100.00;100774.84;1448915;90;21302;-89
2022/12/30 06:59:12;;;;;;;43.57;28.27;;;;;;;4.41;100.00;100778.30;1452281;90;21532;-88
2022/12/30 07:01:38;;;;;;;38.43;25.23;;;;;;;4.41;100.00;100779.13;1454328;90;21412;-90
2022/12/30 07:04:04;;;;;;;43.60;26.43;;;;;;;4.43;100.00;100794.30;1453164;89;21375;-91
2022/12/30 07:06:33;;;;;;;38.30;25.43;;;;;;;4.40;100.00;100798.42;1448260;90;21458;-91
2022/12/30 07:08:59;;;;;;;37.63;25.70;;;;;;;4.36;100.00;100800.02;1445994;89;21369;-88
2022/12/30 07:11:25;;;;;;;41.00;26.70;;;;;;;4.33;100.00;100816.78;1448227;89;22485;-86
2022/12/30 07:13:51;;;;;;;34.33;23.53;;;;;;;4.32;100.00;100822.97;1449585;89;21421;-87
2022/12/30 07:16:17;;;;;;;38.20;25.23;;;;;;;4.28;100.00;100834.56;1455631;89;21561;-86
2022/12/30 07:18:43;;;;;;;37.33;24.00;;;;;;;4.29;100.00;100825.78;1449306;89;21464;-85
2022/12/30 07:21:09;;;;;;;39.60;22.83;;;;;;;4.33;100.00;100825.11;1451507;90;22888;-92
2022/12/30 07:23:36;;;;;;;36.20;23.23;;;;;;;4.37;100.00;100824.80;1454394;90;21265;-89
2022/12/30 07:26:02;;;;;;;36.33;23.07;;;;;;;4.43;100.00;100829.68;1443232;90;22432;-90
2022/12/30 07:28:28;;;;;;;42.80;23.40;;;;;;;4.49;100.00;100827.97;1450907;90;21280;-91
2022/12/30 07:30:54;;;;;;;41.13;23.77;;;;;;;4.56;100.00;100825.78;1449021;90;21471;-88
2022/12/30 07:33:21;;;;;;;40.03;24.90;;;;;;;4.63;100.00;100823.59;1452681;90;22188;-89
2022/12/30 07:35:47;;;;;;;34.90;23.77;;;;;;;4.65;100.00;100830.90;1453823;90;21346;-88
2022/12/30 07:38:13;;;;;;;40.93;26.40;;;;;;;4.62;100.00;100829.31;1452189;90;21324;-89
2022/12/30 07:40:39;;;;;;;42.67;26.63;;;;;;;4.58;100.00;100821.29;1448697;90;21339;-90
2022/12/30 07:43:05;;;;;;;33.40;23.90;;;;;;;4.56;100.00;100830.19;1456125;90;21526;-86
2022/12/30 07:45:32;;;;;;;39.87;25.73;;;;;;;4.56;100.00;100831.50;1449950;90;21376;-87
2022/12/30 07:47:59;;;;;;;37.23;23.90;;;;;;;4.55;100.00;100827.21;1452240;90;21376;-87
2022/12/30 07:50:25;;;;;;;37.87;23.83;;;;;;;4.58;100.00;100828.32;1451934;90;21405;-86
2022/12/30 07:52:51;;;;;;;43.27;25.47;;;;;;;4.63;100.00;100828.84;1443829;90;21420;-83
2022/12/30 07:55:18;;;;;;;38.57;25.13;;;;;;;4.64;100.00;100826.61;1449951;90;21472;-87
2022/12/30 07:57:44;;;;;;;43.13;27.07;;;;;;;4.63;100.00;100839.33;1448863;90;22373;-86
2022/12/30 08:00:12;;;;;;;39.43;26.07;;;;;;;4.63;100.00;100839.33;1451938;90;21309;-87
2022/12/30 08:02:39;;;;;;;42.27;26.73;;;;;;;4.65;100.00;100834.36;1447070;90;21512;-87
2022/12/30 08:05:08;;;;;;;50.57;30.40;;;;;;;4.68;100.00;100835.94;1456180;90;21420;-85
2022/12/30 08:07:35;;;;;;;37.73;24.57;;;;;;;4.71;100.00;100836.58;1455620;90;21324;-89
2022/12/30 08:10:02;;;;;;;34.40;22.27;;;;;;;4.76;100.00;100836.28;1455102;90;21368;-88
2022/12/30 08:12:28;;;;;;;35.67;23.47;;;;;;;4.80;100.00;100839.06;1453236;90;21354;-84
2022/12/30 08:14:54;;;;;;;38.17;22.63;;;;;;;4.82;100.00;100841.13;1452993;90;22263;-87
2022/12/30 08:17:20;;;;;;;34.57;22.67;;;;;;;4.84;100.00;100842.35;1447461;90;21382;-85
2022/12/30 08:19:47;;;;;;;39.13;23.80;;;;;;;4.87;100.00;100852.16;1441336;89;21420;-84
2022/12/30 08:26:14;;;;;;;38.67;26.23;;;;;;;4.99;100.00;100850.52;1428387;90;21648;-86
2022/12/30 08:28:40;;;;;;;38.10;26.20;;;;;;;5.09;100.00;100853.36;1424962;91;21391;-86
2022/12/30 08:31:11;;;;;;;34.93;25.63;;;;;;;5.16;100.00;100854.64;1425516;91;21593;-87
2022/12/30 08:33:37;;;;;;;41.02;26.37;;;;;;;5.18;100.00;100860.64;1427910;91;21538;-85
2022/12/30 08:36:06;;;;;;;41.97;25.63;;;;;;;5.19;100.00;100862.31;1424522;91;21412;-85
2022/12/30 08:38:38;;;;;;;42.83;24.63;;;;;;;5.20;100.00;100865.30;1359822;91;21266;-85
2022/12/30 08:41:11;;;;;;;52.40;30.67;;;;;;;5.24;100.00;100862.85;1425024;91;21406;-84
2022/12/30 08:43:37;;;;;;;45.67;28.47;;;;;;;5.28;100.00;100872.19;1425127;91;22234;-85
2022/12/30 08:46:04;;;;;;;43.37;28.43;;;;;;;5.30;100.00;100872.10;1423635;91;22401;-85
2022/12/30 08:48:32;;;;;;;59.97;28.20;;;;;;;5.39;100.00;100866.23;1426659;91;21412;-87
2022/12/30 08:50:58;;;;;;;52.20;30.40;;;;;;;5.46;100.00;100864.02;1354698;91;21302;-86
2022/12/30 08:53:25;;;;;;;52.37;28.80;;;;;;;5.49;100.00;100862.50;1430532;89;22241;-83
2022/12/30 08:56:04;;;;;;;47.07;29.43;;;;;;;5.50;100.00;100860.26;1380871;89;21228;-85
2022/12/30 08:58:32;;;;;;;67.27;46.90;;;;;;;5.53;100.00;100862.67;1537498;89;22043;-82
2022/12/30 09:00:59;;;;;;;59.57;38.37;;;;;;;5.51;100.00;100861.45;1423753;89;21310;-85
2022/12/30 09:03:27;;;;;;;53.20;30.47;;;;;;;5.51;100.00;100864.55;1379922;89;22219;-83
2022/12/30 09:05:55;;;;;;;51.23;29.13;;;;;;;5.56;100.00;100863.30;1379973;89;21257;-85
2022/12/30 09:08:21;;;;;;;52.83;28.90;;;;;;;5.61;100.00;100863.83;1379636;89;21236;-84
2022/12/30 09:11:06;;;;;;;44.27;27.27;;;;;;;5.68;100.00;100860.30;1380216;89;21376;-84
2022/12/30 09:13:36;;;;;;;51.43;31.93;;;;;;;5.75;100.00;100861.55;1535420;89;21353;-84
2022/12/30 09:16:03;;;;;;;69.80;45.43;;;;;;;5.80;100.00;100859.44;1381862;89;21317;-79
2022/12/30 09:18:29;;;;;;;55.20;36.57;;;;;;;5.85;100.00;100861.28;1521919;89;21310;-84
2022/12/30 09:20:55;;;;;;;45.87;28.30;;;;;;;5.86;100.00;100861.64;1535257;89;21325;-85
2022/12/30 09:23:22;;;;;;;41.40;24.17;;;;;;;5.85;100.00;100860.45;1379805;89;22131;-85
2022/12/30 09:25:48;;;;;;;31.87;23.03;;;;;;;5.83;100.00;100858.39;1371467;90;21235;-86
2022/12/30 09:28:14;;;;;;;33.40;20.93;;;;;;;5.83;100.00;100863.17;1379393;89;21206;-84
2022/12/30 09:30:41;;;;;;;34.17;21.47;;;;;;;5.84;100.00;100856.12;1378087;90;21304;-85
2022/12/30 09:33:07;;;;;;;31.97;21.83;;;;;;;5.86;100.00;100852.45;1384172;90;21346;-86
2022/12/30 09:35:34;;;;;;;31.40;21.93;;;;;;;5.88;100.00;100855.81;1378294;90;21221;-86
2022/12/30 09:38:00;;;;;;;31.40;20.97;;;;;;;5.89;100.00;100853.55;1378500;89;21287;-85
2022/12/30 09:44:39;;;;;;;34.70;23.27;;;;;;;5.87;100.00;100847.58;1535172;89;21288;-86
2022/12/30 09:47:20;;;;;;;34.13;24.87;;;;;;;5.83;100.00;100840.84;1526277;89;21421;-89
2022/12/30 09:49:52;;;;;;;39.58;24.15;;;;;;;5.82;100.00;100842.28;1533746;90;21252;-85
2022/12/30 09:52:26;;;;;;;39.77;27.00;;;;;;;5.84;100.00;100843.86;1378735;90;21398;-86
2022/12/30 09:55:04;;;;;;;38.33;25.73;;;;;;;5.87;100.00;100838.39;1535163;89;21350;-89
2022/12/30 09:57:34;;;;;;;37.47;26.00;;;;;;;5.94;100.00;100837.98;1375266;90;21310;-86
2022/12/30 10:00:08;;;;;;;37.30;27.40;;;;;;;6.01;100.00;100833.96;1492804;90;21471;-87
2022/12/30 10:02:59;;;;;;;45.43;27.90;;;;;;;6.06;100.00;100837.11;1451374;89;21928;-86
2022/12/30 10:05:59;;;;;;;42.13;28.00;;;;;;;6.08;100.00;100837.85;1451116;89;21649;-86
2022/12/30 10:08:57;;;;;;;43.73;30.43;;;;;;;6.12;100.00;100841.09;1450646;90;22308;-85
2022/12/30 10:11:47;;;;;;;48.50;31.10;;;;;;;6.08;100.00;100835.23;1448298;90;22454;-87
2022/12/30 10:14:52;;;;;;;51.90;30.20;;;;;;;6.10;100.00;100825.45;1443079;89;21523;-85
2022/12/30 10:17:29;;;;;;;56.40;33.90;;;;;;;6.17;100.00;100820.11;1452632;89;21585;-85
2022/12/30 10:20:04;;;;;;;49.33;32.70;;;;;;;6.22;100.00;100814.05;1450554;89;21515;-83
2022/12/30 10:22:42;;;;;;;41.97;27.90;;;;;;;6.28;100.00;100808.35;1451263;90;21383;-85
2022/12/30 10:25:29;;;;;;;42.10;29.77;;;;;;;6.33;100.00;100814.13;1452113;90;21628;-85
2022/12/30 10:27:56;;;;;;;57.30;30.53;;;;;;;6.40;100.00;100818.94;1451708;89;21435;-84
2022/12/30 10:30:29;;;;;;;45.63;31.13;;;;;;;6.44;100.00;100817.75;1451875;89;21367;-84
2022/12/30 10:33:01;;;;;;;44.80;31.73;;;;;;;6.52;100.00;100812.78;1454185;89;22337;-85
2022/12/30 10:35:33;;;;;;;37.80;27.50;;;;;;;6.54;100.00;100804.31;1459522;89;21420;-81
2022/12/30 10:38:15;;;;;;;37.60;26.97;;;;;;;6.56;100.00;100802.41;1446207;90;21366;-82
2022/12/30 10:41:09;;;;;;;37.13;26.10;;;;;;;6.57;100.00;100799.30;1448618;90;21376;-84
2022/12/30 10:43:58;;;;;;;49.10;33.60;;;;;;;6.58;100.00;100789.14;1452435;89;21451;-85
2022/12/30 10:46:45;;;;;;;47.70;30.30;;;;;;;6.61;100.00;100787.59;1451339;89;22403;-83
2022/12/30 10:49:41;;;;;;;50.00;31.73;;;;;;;6.66;100.00;100790.25;1451587;89;21427;-84
2022/12/30 10:52:10;;;;;;;44.13;29.17;;;;;;;6.71;100.00;100785.49;1451509;89;21457;-83
2022/12/30 10:54:36;;;;;;;43.27;30.83;;;;;;;6.72;100.00;100785.84;1453114;89;21541;-84
2022/12/30 10:57:03;;;;;;;44.60;28.43;;;;;;;6.70;100.00;100779.87;1451176;89;22315;-84
2022/12/30 10:59:34;;;;;;;41.63;29.23;;;;;;;6.70;100.00;100781.64;1453373;89;21467;-83
2022/12/30 11:02:21;;;;;;;43.50;28.65;;;;;;;6.71;100.00;100780.23;1451047;90;22404;-85
2022/12/30 11:04:47;;;;;;;45.20;29.33;;;;;;;6.72;100.00;100777.95;1451433;89;21641;-83
2022/12/30 11:07:15;;;;;;;43.63;27.53;;;;;;;6.75;100.00;100786.92;1449357;89;21380;-85
2022/12/30 11:09:45;;;;;;;41.10;27.90;;;;;;;6.74;100.00;100791.00;1376154;90;21303;-85
2022/12/30 11:15:22;;;;;;;40.20;27.50;;;;;;;6.83;100.00;100784.22;1520871;89;21244;-84
2022/12/30 11:17:55;;;;;;;43.35;27.02;;;;;;;6.89;100.00;100773.23;1533468;89;21312;-85
2022/12/30 11:20:38;;;;;;;37.87;25.87;;;;;;;6.93;100.00;100775.53;1435757;90;21451;-84
2022/12/30 11:23:24;;;;;;;36.53;25.33;;;;;;;6.99;100.00;100775.06;1534561;89;21310;-85
2022/12/30 11:25:51;;;;;;;32.87;22.07;;;;;;;7.06;100.00;100778.06;1519779;89;21266;-84
2022/12/30 11:28:25;;;;;;;28.07;18.70;;;;;;;7.09;100.00;100779.14;1376883;90;21436;-82
2022/12/30 11:30:56;;;;;;;34.03;23.67;;;;;;;7.12;100.00;100782.85;1485177;89;21479;-82
2022/12/30 11:33:34;;;;;;;29.80;18.40;;;;;;;7.15;100.00;100780.47;1533464;90;21259;-83
2022/12/30 11:36:22;;;;;;;52.67;31.83;;;;;;;7.13;100.00;100777.94;1449695;90;21583;-85
2022/12/30 11:38:51;;;;;;;47.13;30.50;;;;;;;7.10;100.00;100775.54;1450481;89;21397;-83
2022/12/30 11:41:25;;;;;;;49.53;27.83;;;;;;;7.07;100.00;100782.36;1453991;89;21375;-84
2022/12/30 11:44:00;;;;;;;43.30;27.37;;;;;;;7.02;100.00;100780.58;1454604;89;21496;-84
2022/12/30 11:46:34;;;;;;;40.53;26.23;;;;;;;6.99;100.00;100788.22;1407626;92;21701;-86
2022/12/30 11:49:04;;;;;;;40.47;25.93;;;;;;;7.01;100.00;100788.09;1385912;94;21467;-84
2022/12/30 11:51:35;;;;;;;45.97;28.80;;;;;;;7.05;100.00;100781.66;1375790;95;21650;-85
2022/12/30 11:54:12;;;;;;;44.00;26.77;;;;;;;7.08;100.00;100785.37;1447125;95;22539;-83
2022/12/30 11:56:59;;;;;;;37.83;25.47;;;;;;;7.12;100.00;100780.22;1452995;95;21477;-84
2022/12/30 11:59:36;;;;;;;39.60;26.83;;;;;;;7.15;100.00;100781.30;1453903;94;21386;-84
2022/12/30 12:02:24;;;;;;;42.13;27.47;;;;;;;7.20;100.00;100783.11;1336526;95;21669;-84
2022/12/30 12:04:52;;;;;;;43.03;30.13;;;;;;;7.17;100.00;100781.20;1378816;94;21466;-84
2022/12/30 12:07:29;;;;;;;35.50;26.83;;;;;;;7.14;100.00;100784.90;1379641;95;21584;-83
2022/12/30 12:10:04;;;;;;;40.80;25.87;;;;;;;7.08;100.00;100791.09;1372518;95;21541;-84
2022/12/30 12:12:48;;;;;;;46.37;26.63;;;;;;;7.07;100.00;100784.98;1377390;94;21473;-83
2022/12/30 12:15:37;;;;;;;43.17;29.30;;;;;;;7.07;100.00;100786.30;1406255;92;21495;-83
2022/12/30 12:18:21;;;;;;;46.43;30.10;;;;;;;7.09;100.00;100798.05;1411280;93;22588;-83
2022/12/30 12:21:20;;;;;;;38.70;27.53;;;;;;;7.09;100.00;100793.62;1367231;94;21497;-84
2022/12/30 12:24:07;;;;;;;42.77;28.47;;;;;;;7.09;100.00;100794.09;1372918;92;21465;-80
2022/12/30 12:26:48;;;;;;;42.90;29.17;;;;;;;7.07;100.00;100804.73;1446929;88;21404;-81
2022/12/30 12:29:15;;;;;;;;;;;;;;;7.00;100.00;100808.79;1453232;89;21398;-80
2022/12/30 12:32:12;;;;;;;38.57;23.53;;;;;;;6.93;100.00;100812.81;1462128;89;20821;-80
2022/12/30 12:35:00;;;;;;;35.10;24.40;;;;;;;6.88;100.00;100814.98;1451427;88;21376;-80
2022/12/30 12:37:44;;;;;;;41.27;25.17;;;;;;;6.80;100.00;100815.53;1453343;90;21339;-81
2022/12/30 12:40:28;;;;;;;36.70;25.73;;;;;;;6.76;100.00;100816.25;1442831;90;21420;-79
2022/12/30 12:43:21;;;;;;;32.40;22.60;;;;;;;6.72;100.00;100818.72;1448929;88;21323;-79
2022/12/30 12:46:38;;;;;;;39.10;24.53;;;;;;;6.68;100.00;100813.34;1451964;89;21664;-82
2022/12/30 12:49:30;;;;;;;35.10;22.73;;;;;;;6.68;100.00;100811.19;1456433;90;21412;-81
2022/12/30 12:52:14;;;;;;;37.73;23.57;;;;;;;6.68;100.00;100813.34;1447643;90;21540;-82
2022/12/30 12:55:03;;;;;;;44.63;28.63;;;;;;;6.69;100.00;100820.27;1451870;90;21397;-82
2022/12/30 12:57:41;;;;;;;54.77;33.10;;;;;;;6.68;100.00;100822.55;1383512;90;21220;-82